Minnora, West Virginia
Current Conditions -  °F | °C
As of 2:54 PM on Monday 22 Dec 2014 (Local Time) from KCRW Reporting Station
Scattered Clouds Scattered Clouds  
Wind Chill: 53°   Ceiling: Unl
Heat Index: 53°   Visibility: 10mi
Dew Point: 37°   Wind: 9mph
Humidity: 55%   Direction: 130°SE
Pressure: 29.93"   Gusts: NA
Location:  38.7369°N, 81.0929°W
Report Text: KCRW 221954Z 13008KT 10SM SCT055 SCT250 12/03 A2993 RMK AO2 SLP137 T01170028
Loading
Personal Weather Stations






























Interactive Weather Map New forecast layout! Learn more

10-Day Weather Forecast

Advertisements
Track Severe Weather on mobile